Time,TemperatureF,DewpointF,PressureIn,WindDirection,WindDirectionDegrees,WindSpeedMPH,WindSpeedGustMPH,Humidity,HourlyPrecipIn,Conditions,Clouds,dailyrainin,SoftwareType,DateUTC
2013-12-02 00:03:00,31.2,29.0,25.33,SW,225,0.0,19.0,94,0.00,,,0.00,Rainwise IP-100,2013-12-02 08:03:00,
2013-12-02 00:08:00,30.9,29.0,25.32,ENE,67,4.0,21.0,94,0.00,,,0.00,Rainwise IP-100,2013-12-02 08:08:00,
2013-12-02 00:13:00,30.8,29.0,25.34,NW,315,2.8,18.0,94,0.00,,,0.00,Rainwise IP-100,2013-12-02 08:13:00,
2013-12-02 00:18:00,30.5,29.0,25.33,NW,315,6.5,16.0,95,0.00,,,0.00,Rainwise IP-100,2013-12-02 08:18:00,
2013-12-02 00:23:00,30.1,29.0,25.33,ESE,112,3.7,17.0,96,0.00,,,0.00,Rainwise IP-100,2013-12-02 08:23:00,
2013-12-02 00:28:00,30.0,29.0,25.32,NNW,337,0.0,22.0,95,0.00,,,0.00,Rainwise IP-100,2013-12-02 08:28:00,
2013-12-02 00:33:00,30.0,29.0,25.33,West,270,0.0,21.0,94,0.00,,,0.00,Rainwise IP-100,2013-12-02 08:33:00,
2013-12-02 00:38:00,30.0,29.0,25.34,North,360,9.1,21.0,93,0.00,,,0.00,Rainwise IP-100,2013-12-02 08:38:00,
2013-12-02 00:43:00,29.9,29.0,25.34,NW,315,25.2,25.2,93,0.00,,,0.00,Rainwise IP-100,2013-12-02 08:43:00,
2013-12-02 00:48:00,29.7,29.0,25.33,North,360,6.3,25.0,93,0.00,,,0.00,Rainwise IP-100,2013-12-02 08:48:00,
2013-12-02 00:53:00,29.5,29.0,25.33,WSW,247,1.4,15.0,93,0.00,,,0.00,Rainwise IP-100,2013-12-02 08:53:00,
2013-12-02 00:58:00,29.4,28.0,25.32,South,180,3.0,21.0,92,0.00,,,0.00,Rainwise IP-100,2013-12-02 08:58:00,
2013-12-02 01:03:00,29.3,26.0,25.32,North,360,1.4,25.0,89,0.00,,,0.00,Rainwise IP-100,2013-12-02 09:03:00,
2013-12-02 01:08:00,29.2,26.0,25.33,NNE,22,6.5,23.0,88,0.00,,,0.00,Rainwise IP-100,2013-12-02 09:08:00,
2013-12-02 01:13:00,29.1,26.0,25.34,NNE,22,8.6,24.0,88,0.00,,,0.00,Rainwise IP-100,2013-12-02 09:13:00,
2013-12-02 01:18:00,28.9,26.0,25.32,NE,45,9.6,17.0,89,0.00,,,0.00,Rainwise IP-100,2013-12-02 09:18:00,
2013-12-02 01:23:00,28.6,26.0,25.34,WNW,292,2.1,17.0,89,0.00,,,0.00,Rainwise IP-100,2013-12-02 09:23:00,
2013-12-02 01:28:00,28.6,26.0,25.33,SSE,157,4.7,10.0,87,0.00,,,0.00,Rainwise IP-100,2013-12-02 09:28:00,
2013-12-02 01:33:00,28.9,24.0,25.32,NNW,337,12.6,12.6,84,0.00,,,0.00,Rainwise IP-100,2013-12-02 09:33:00,
2013-12-02 01:38:00,28.8,24.0,25.33,NNW,337,19.6,19.6,83,0.00,,,0.00,Rainwise IP-100,2013-12-02 09:38:00,
2013-12-02 01:43:00,28.4,24.0,25.35,North,360,5.8,19.0,86,0.00,,,0.00,Rainwise IP-100,2013-12-02 09:43:00,
2013-12-02 01:48:00,28.0,26.0,25.34,NNE,22,7.5,15.0,90,0.00,,,0.00,Rainwise IP-100,2013-12-02 09:48:00,
2013-12-02 01:53:00,27.5,26.0,25.36,NNW,337,12.6,18.0,93,0.00,,,0.00,Rainwise IP-100,2013-12-02 09:53:00,
2013-12-02 01:58:00,26.8,26.0,25.35,North,360,7.9,12.0,96,0.00,,,0.00,Rainwise IP-100,2013-12-02 09:58:00,
2013-12-02 02:03:00,26.2,26.0,25.34,NNW,337,13.5,17.0,97,0.00,,,0.00,Rainwise IP-100,2013-12-02 10:03:00,
2013-12-02 02:08:00,25.8,26.0,25.35,NNE,22,6.1,17.0,98,0.00,,,0.00,Rainwise IP-100,2013-12-02 10:08:00,
2013-12-02 02:13:00,25.5,26.0,25.35,NNW,337,15.9,22.0,98,0.00,,,0.00,Rainwise IP-100,2013-12-02 10:13:00,
2013-12-02 02:18:00,25.2,26.0,25.34,NW,315,10.7,19.0,98,0.00,,,0.00,Rainwise IP-100,2013-12-02 10:18:00,
2013-12-02 02:23:00,24.8,26.0,25.36,WSW,247,2.1,18.0,98,0.00,,,0.00,Rainwise IP-100,2013-12-02 10:23:00,
2013-12-02 02:28:00,24.7,26.0,25.34,NNE,22,10.5,13.0,99,0.00,,,0.00,Rainwise IP-100,2013-12-02 10:28:00,
2013-12-02 02:33:00,24.6,26.0,25.36,NNW,337,7.0,18.0,99,0.00,,,0.00,Rainwise IP-100,2013-12-02 10:33:00,
2013-12-02 02:38:00,24.3,24.0,25.34,NNW,337,5.6,21.0,99,0.00,,,0.00,Rainwise IP-100,2013-12-02 10:38:00,
2013-12-02 02:43:00,23.9,24.0,25.34,NNE,22,4.0,17.0,99,0.00,,,0.00,Rainwise IP-100,2013-12-02 10:43:00,
2013-12-02 02:48:00,23.8,24.0,25.36,NNW,337,13.3,18.0,99,0.00,,,0.00,Rainwise IP-100,2013-12-02 10:48:00,
2013-12-02 02:53:00,23.7,24.0,25.34,NW,315,1.2,16.0,99,0.00,,,0.00,Rainwise IP-100,2013-12-02 10:53:00,
2013-12-02 02:58:00,23.5,24.0,25.34,NNW,337,12.4,18.0,99,0.00,,,0.00,Rainwise IP-100,2013-12-02 10:58:00,
2013-12-02 03:03:00,23.5,24.0,25.34,NNE,22,3.0,16.0,98,0.00,,,0.00,Rainwise IP-100,2013-12-02 11:03:00,
2013-12-02 03:08:00,23.5,24.0,25.34,NNE,22,9.6,14.0,98,0.00,,,0.00,Rainwise IP-100,2013-12-02 11:08:00,
2013-12-02 03:13:00,23.5,24.0,25.35,North,360,4.2,17.0,98,0.00,,,0.00,Rainwise IP-100,2013-12-02 11:13:00,
2013-12-02 03:18:00,23.5,24.0,25.35,SE,135,4.2,21.0,98,0.00,,,0.00,Rainwise IP-100,2013-12-02 11:18:00,
2013-12-02 03:23:00,23.5,24.0,25.35,NE,45,3.7,14.0,97,0.00,,,0.00,Rainwise IP-100,2013-12-02 11:23:00,
2013-12-02 03:28:00,23.5,23.0,25.35,NNW,337,2.1,25.0,96,0.00,,,0.00,Rainwise IP-100,2013-12-02 11:28:00,
2013-12-02 03:33:00,23.5,23.0,25.35,NNE,22,9.1,19.0,96,0.00,,,0.00,Rainwise IP-100,2013-12-02 11:33:00,
2013-12-02 03:38:00,23.4,23.0,25.34,NNW,337,17.5,17.5,96,0.00,,,0.00,Rainwise IP-100,2013-12-02 11:38:00,
2013-12-02 03:43:00,23.4,23.0,25.34,SE,135,0.0,22.0,96,0.00,,,0.00,Rainwise IP-100,2013-12-02 11:43:00,
2013-12-02 03:48:00,23.4,23.0,25.34,NNE,22,4.7,20.0,96,0.00,,,0.00,Rainwise IP-100,2013-12-02 11:48:00,
2013-12-02 03:53:00,23.5,23.0,25.34,NNW,337,3.3,14.0,96,0.00,,,0.00,Rainwise IP-100,2013-12-02 11:53:00,
2013-12-02 03:58:00,23.5,23.0,25.33,NNW,337,9.3,13.0,96,0.00,,,0.00,Rainwise IP-100,2013-12-02 11:58:00,
2013-12-02 04:03:00,23.5,23.0,25.34,NNW,337,3.3,16.0,96,0.00,,,0.00,Rainwise IP-100,2013-12-02 12:03:00,
2013-12-02 04:08:00,23.4,23.0,25.33,NNW,337,1.9,12.0,97,0.00,,,0.00,Rainwise IP-100,2013-12-02 12:08:00,
2013-12-02 04:13:00,23.3,23.0,25.34,SSE,157,2.1,13.0,97,0.00,,,0.00,Rainwise IP-100,2013-12-02 12:13:00,
2013-12-02 04:18:00,23.3,23.0,25.33,North,360,6.1,11.0,98,0.00,,,0.00,Rainwise IP-100,2013-12-02 12:18:00,
2013-12-02 04:23:00,23.2,23.0,25.33,North,360,6.5,14.0,98,0.00,,,0.00,Rainwise IP-100,2013-12-02 12:23:00,
2013-12-02 04:28:00,23.1,23.0,25.33,NNW,337,7.0,13.0,98,0.00,,,0.00,Rainwise IP-100,2013-12-02 12:28:00,
2013-12-02 04:33:00,22.9,23.0,25.32,NNE,22,9.3,13.0,98,0.00,,,0.00,Rainwise IP-100,2013-12-02 12:33:00,
2013-12-02 04:38:00,22.9,23.0,25.33,NNE,22,3.3,12.0,98,0.00,,,0.00,Rainwise IP-100,2013-12-02 12:38:00,
2013-12-02 04:43:00,22.9,23.0,25.33,NNW,337,2.8,15.0,98,0.00,,,0.00,Rainwise IP-100,2013-12-02 12:43:00,
2013-12-02 04:48:00,22.9,23.0,25.34,NNW,337,7.2,14.0,98,0.00,,,0.00,Rainwise IP-100,2013-12-02 12:48:00,
2013-12-02 04:53:00,22.8,23.0,25.31,NNE,22,6.3,13.0,98,0.00,,,0.00,Rainwise IP-100,2013-12-02 12:53:00,
2013-12-02 04:58:00,22.8,23.0,25.34,North,360,5.8,16.0,98,0.00,,,0.00,Rainwise IP-100,2013-12-02 12:58:00,
2013-12-02 05:03:00,22.7,23.0,25.34,NNE,22,4.0,14.0,98,0.00,,,0.00,Rainwise IP-100,2013-12-02 13:03:00,
2013-12-02 05:08:00,22.8,23.0,25.32,NNW,337,14.7,17.0,97,0.00,,,0.00,Rainwise IP-100,2013-12-02 13:08:00,
2013-12-02 05:13:00,22.8,23.0,25.32,NNE,22,2.3,18.0,97,0.00,,,0.00,Rainwise IP-100,2013-12-02 13:13:00,
2013-12-02 05:18:00,22.7,23.0,25.32,NNW,337,7.7,14.0,97,0.00,,,0.00,Rainwise IP-100,2013-12-02 13:18:00,
2013-12-02 05:23:00,22.8,23.0,25.32,NW,315,12.1,12.1,96,0.00,,,0.00,Rainwise IP-100,2013-12-02 13:23:00,
2013-12-02 05:28:00,22.9,23.0,25.33,North,360,7.5,16.0,96,0.00,,,0.00,Rainwise IP-100,2013-12-02 13:28:00,
2013-12-02 05:33:00,22.8,23.0,25.32,NNW,337,3.3,16.0,96,0.00,,,0.00,Rainwise IP-100,2013-12-02 13:33:00,
2013-12-02 05:38:00,22.8,23.0,25.33,WNW,292,2.1,18.0,96,0.00,,,0.00,Rainwise IP-100,2013-12-02 13:38:00,
2013-12-02 05:43:00,22.8,23.0,25.33,North,360,4.2,13.0,96,0.00,,,0.00,Rainwise IP-100,2013-12-02 13:43:00,
2013-12-02 05:48:00,22.7,23.0,25.33,NNW,337,5.4,17.0,96,0.00,,,0.00,Rainwise IP-100,2013-12-02 13:48:00,
2013-12-02 05:53:00,22.6,21.0,25.31,NNW,337,10.7,17.0,95,0.00,,,0.00,Rainwise IP-100,2013-12-02 13:53:00,
2013-12-02 05:58:00,22.4,21.0,25.33,North,360,8.6,18.0,95,0.00,,,0.00,Rainwise IP-100,2013-12-02 13:58:00,
2013-12-02 06:03:00,22.3,21.0,25.32,North,360,12.1,14.0,95,0.00,,,0.00,Rainwise IP-100,2013-12-02 14:03:00,
2013-12-02 06:08:00,22.2,21.0,25.33,NNE,22,7.7,15.0,95,0.00,,,0.00,Rainwise IP-100,2013-12-02 14:08:00,
2013-12-02 06:13:00,22.0,21.0,25.33,NNW,337,9.6,14.0,95,0.00,,,0.00,Rainwise IP-100,2013-12-02 14:13:00,
2013-12-02 06:18:00,22.0,21.0,25.32,NNE,22,8.2,11.0,95,0.00,,,0.00,Rainwise IP-100,2013-12-02 14:18:00,
2013-12-02 06:23:00,22.0,21.0,25.32,NNE,22,6.5,16.0,95,0.00,,,0.00,Rainwise IP-100,2013-12-02 14:23:00,
2013-12-02 06:28:00,22.0,21.0,25.32,NNW,337,8.4,18.0,95,0.00,,,0.00,Rainwise IP-100,2013-12-02 14:28:00,
2013-12-02 06:33:00,22.0,23.0,25.32,NNW,337,7.2,9.0,96,0.00,,,0.00,Rainwise IP-100,2013-12-02 14:33:00,
2013-12-02 06:38:00,22.0,23.0,25.31,NNW,337,1.9,9.0,96,0.00,,,0.00,Rainwise IP-100,2013-12-02 14:38:00,
2013-12-02 06:43:00,22.0,23.0,25.31,NNW,337,4.2,11.0,96,0.00,,,0.00,Rainwise IP-100,2013-12-02 14:43:00,
2013-12-02 06:48:00,22.0,23.0,25.31,NNW,337,10.5,14.0,97,0.00,,,0.00,Rainwise IP-100,2013-12-02 14:48:00,
2013-12-02 06:53:00,22.1,23.0,25.31,NNW,337,4.2,12.0,96,0.00,,,0.00,Rainwise IP-100,2013-12-02 14:53:00,
2013-12-02 06:58:00,22.3,23.0,25.31,NNE,22,11.4,12.0,96,0.00,,,0.00,Rainwise IP-100,2013-12-02 14:58:00,
2013-12-02 07:03:00,22.4,21.0,25.31,NNW,337,7.5,15.0,95,0.00,,,0.00,Rainwise IP-100,2013-12-02 15:03:00,
2013-12-02 07:09:00,22.5,23.0,25.32,NNE,22,1.6,14.0,96,0.00,,,0.00,Rainwise IP-100,2013-12-02 15:09:00,
2013-12-02 07:14:00,22.4,23.0,25.31,NNW,337,7.7,16.0,96,0.00,,,0.00,Rainwise IP-100,2013-12-02 15:14:00,
2013-12-02 07:19:00,22.4,21.0,25.32,NW,315,10.5,17.0,95,0.00,,,0.00,Rainwise IP-100,2013-12-02 15:19:00,
2013-12-02 07:24:00,22.4,21.0,25.31,NNE,22,11.9,24.0,94,0.00,,,0.00,Rainwise IP-100,2013-12-02 15:24:00,
2013-12-02 07:29:00,22.3,21.0,25.31,NW,315,0.0,14.0,93,0.00,,,0.00,Rainwise IP-100,2013-12-02 15:29:00,
2013-12-02 07:34:00,22.3,21.0,25.32,NNW,337,4.4,14.0,93,0.00,,,0.00,Rainwise IP-100,2013-12-02 15:34:00,
2013-12-02 07:39:00,22.3,21.0,25.32,NNE,22,4.4,11.0,94,0.00,,,0.00,Rainwise IP-100,2013-12-02 15:39:00,
2013-12-02 07:44:00,22.2,21.0,25.32,NNW,337,7.5,16.0,95,0.00,,,0.00,Rainwise IP-100,2013-12-02 15:44:00,
2013-12-02 07:49:00,22.0,23.0,25.32,SSE,157,0.0,11.0,96,0.00,,,0.00,Rainwise IP-100,2013-12-02 15:49:00,
2013-12-02 07:54:00,22.0,23.0,25.32,NE,45,3.7,12.0,96,0.00,,,0.00,Rainwise IP-100,2013-12-02 15:54:00,
2013-12-02 07:59:00,22.0,23.0,25.32,NNE,22,3.0,19.0,96,0.00,,,0.00,Rainwise IP-100,2013-12-02 15:59:00,
2013-12-02 08:04:00,22.1,21.0,25.32,NNW,337,1.9,13.0,95,0.00,,,0.00,Rainwise IP-100,2013-12-02 16:04:00,
2013-12-02 08:09:00,22.1,23.0,25.33,North,360,7.2,11.0,96,0.00,,,0.00,Rainwise IP-100,2013-12-02 16:09:00,
2013-12-02 08:14:00,22.0,23.0,25.32,North,360,3.7,9.0,96,0.00,,,0.00,Rainwise IP-100,2013-12-02 16:14:00,
2013-12-02 08:19:00,22.0,23.0,25.33,North,360,6.3,12.0,96,0.00,,,0.00,Rainwise IP-100,2013-12-02 16:19:00,
2013-12-02 08:24:00,22.0,23.0,25.34,North,360,6.8,11.0,96,0.00,,,0.00,Rainwise IP-100,2013-12-02 16:24:00,
2013-12-02 08:29:00,21.9,23.0,25.34,NNE,22,7.0,9.0,96,0.00,,,0.00,Rainwise IP-100,2013-12-02 16:29:00,
2013-12-02 08:34:00,21.8,23.0,25.34,NNW,337,9.6,13.0,96,0.00,,,0.00,Rainwise IP-100,2013-12-02 16:34:00,
2013-12-02 08:39:00,22.0,21.0,25.34,North,360,4.9,11.0,95,0.00,,,0.00,Rainwise IP-100,2013-12-02 16:39:00,
2013-12-02 08:44:00,22.1,21.0,25.34,South,180,6.1,20.0,95,0.00,,,0.00,Rainwise IP-100,2013-12-02 16:44:00,
2013-12-02 08:49:00,22.1,21.0,25.34,NNW,337,8.2,10.0,94,0.00,,,0.00,Rainwise IP-100,2013-12-02 16:49:00,
2013-12-02 08:54:00,22.3,21.0,25.34,East,90,0.0,11.0,93,0.00,,,0.00,Rainwise IP-100,2013-12-02 16:54:00,
2013-12-02 08:59:00,22.3,21.0,25.34,NNW,337,3.3,11.0,93,0.00,,,0.00,Rainwise IP-100,2013-12-02 16:59:00,
2013-12-02 09:04:00,22.2,21.0,25.35,NNW,337,11.0,16.0,92,0.00,,,0.00,Rainwise IP-100,2013-12-02 17:04:00,
2013-12-02 09:09:00,22.2,21.0,25.35,North,360,9.1,12.0,91,0.00,,,0.00,Rainwise IP-100,2013-12-02 17:09:00,
2013-12-02 09:14:00,22.1,21.0,25.36,NNE,22,5.8,10.0,90,0.00,,,0.00,Rainwise IP-100,2013-12-02 17:14:00,
2013-12-02 09:19:00,22.0,21.0,25.35,NNE,22,4.0,17.0,89,0.00,,,0.00,Rainwise IP-100,2013-12-02 17:19:00,
2013-12-02 09:24:00,22.1,21.0,25.35,NE,45,4.0,14.0,89,0.00,,,0.00,Rainwise IP-100,2013-12-02 17:24:00,
2013-12-02 09:29:00,22.2,21.0,25.36,SW,225,0.0,10.0,89,0.00,,,0.00,Rainwise IP-100,2013-12-02 17:29:00,
2013-12-02 09:34:00,22.1,21.0,25.36,North,360,1.4,12.0,89,0.00,,,0.00,Rainwise IP-100,2013-12-02 17:34:00,
2013-12-02 09:39:00,22.2,21.0,25.36,NNE,22,5.6,11.0,89,0.00,,,0.00,Rainwise IP-100,2013-12-02 17:39:00,
2013-12-02 09:44:00,22.2,21.0,25.36,NNE,22,0.0,6.0,89,0.00,,,0.00,Rainwise IP-100,2013-12-02 17:44:00,
2013-12-02 09:49:00,22.3,21.0,25.36,NNE,22,9.3,12.0,89,0.00,,,0.00,Rainwise IP-100,2013-12-02 17:49:00,
2013-12-02 09:54:00,22.3,21.0,25.36,NNW,337,1.6,14.0,88,0.00,,,0.00,Rainwise IP-100,2013-12-02 17:54:00,
2013-12-02 09:59:00,22.3,21.0,25.36,NNE,22,7.2,8.0,88,0.00,,,0.00,Rainwise IP-100,2013-12-02 17:59:00,
2013-12-02 10:04:00,22.3,21.0,25.36,NNW,337,6.3,7.0,88,0.00,,,0.00,Rainwise IP-100,2013-12-02 18:04:00,
2013-12-02 10:09:00,22.3,21.0,25.36,NNW,337,5.8,8.0,88,0.00,,,0.00,Rainwise IP-100,2013-12-02 18:09:00,
2013-12-02 10:14:00,22.4,21.0,25.37,NNE,22,4.4,17.0,89,0.00,,,0.00,Rainwise IP-100,2013-12-02 18:14:00,
2013-12-02 10:19:00,22.5,21.0,25.37,NNW,337,5.6,10.0,88,0.00,,,0.00,Rainwise IP-100,2013-12-02 18:19:00,
2013-12-02 10:24:00,22.6,21.0,25.37,NNW,337,1.6,11.0,88,0.00,,,0.00,Rainwise IP-100,2013-12-02 18:24:00,
2013-12-02 10:29:00,22.6,18.0,25.38,NNW,337,9.8,9.8,87,0.00,,,0.00,Rainwise IP-100,2013-12-02 18:29:00,
2013-12-02 10:34:00,22.4,21.0,25.38,North,360,6.8,11.0,88,0.00,,,0.00,Rainwise IP-100,2013-12-02 18:34:00,
2013-12-02 10:39:00,22.4,21.0,25.38,NNE,22,4.4,9.0,89,0.00,,,0.00,Rainwise IP-100,2013-12-02 18:39:00,
2013-12-02 10:44:00,22.4,21.0,25.38,NNW,337,7.7,7.7,89,0.00,,,0.00,Rainwise IP-100,2013-12-02 18:44:00,
2013-12-02 10:49:00,22.5,21.0,25.38,NNW,337,6.8,7.0,88,0.00,,,0.00,Rainwise IP-100,2013-12-02 18:49:00,
2013-12-02 10:54:00,22.4,18.0,25.38,NNW,337,6.3,6.3,87,0.00,,,0.00,Rainwise IP-100,2013-12-02 18:54:00,
2013-12-02 10:59:00,22.4,18.0,25.38,NNW,337,5.4,10.0,87,0.00,,,0.00,Rainwise IP-100,2013-12-02 18:59:00,
2013-12-02 11:04:00,22.4,18.0,25.38,NW,315,1.6,5.0,87,0.00,,,0.00,Rainwise IP-100,2013-12-02 19:04:00,
2013-12-02 11:09:00,22.5,18.0,25.38,NNE,22,1.4,1.4,87,0.00,,,0.00,Rainwise IP-100,2013-12-02 19:09:00,
2013-12-02 11:14:00,22.7,18.0,25.38,NNE,22,8.6,8.6,85,0.00,,,0.00,Rainwise IP-100,2013-12-02 19:14:00,
2013-12-02 11:19:00,22.7,18.0,25.38,SSW,202,0.0,8.0,85,0.00,,,0.00,Rainwise IP-100,2013-12-02 19:19:00,
2013-12-02 11:24:00,22.7,18.0,25.38,ENE,67,1.6,8.0,86,0.00,,,0.00,Rainwise IP-100,2013-12-02 19:24:00,
2013-12-02 11:29:00,22.5,18.0,25.38,West,270,0.0,11.0,86,0.00,,,0.00,Rainwise IP-100,2013-12-02 19:29:00,
2013-12-02 11:34:00,22.5,18.0,25.38,North,360,10.3,10.3,86,0.00,,,0.00,Rainwise IP-100,2013-12-02 19:34:00,
2013-12-02 11:39:00,22.5,18.0,25.38,NNE,22,5.4,10.0,86,0.00,,,0.00,Rainwise IP-100,2013-12-02 19:39:00,
2013-12-02 11:44:00,22.6,18.0,25.38,NNW,337,10.0,10.0,86,0.00,,,0.00,Rainwise IP-100,2013-12-02 19:44:00,
2013-12-02 11:50:00,22.6,18.0,25.38,NNW,337,10.0,10.0,86,0.00,,,0.00,Rainwise IP-100,2013-12-02 19:50:00,
2013-12-02 11:55:00,22.6,18.0,25.37,NNE,22,6.5,12.0,81,0.00,,,0.00,Rainwise IP-100,2013-12-02 19:55:00,
2013-12-02 12:00:00,22.6,18.0,25.37,NNW,337,6.1,14.0,80,0.00,,,0.00,Rainwise IP-100,2013-12-02 20:00:00,
2013-12-02 12:05:00,22.6,18.0,25.37,North,360,2.6,13.0,80,0.00,,,0.00,Rainwise IP-100,2013-12-02 20:05:00,
2013-12-02 12:10:00,22.6,18.0,25.37,NNE,22,4.7,12.0,80,0.00,,,0.00,Rainwise IP-100,2013-12-02 20:10:00,
2013-12-02 12:15:00,22.7,18.0,25.37,NNE,22,4.0,12.0,80,0.00,,,0.00,Rainwise IP-100,2013-12-02 20:15:00,
2013-12-02 12:20:00,22.7,18.0,25.37,North,360,6.3,15.0,80,0.00,,,0.00,Rainwise IP-100,2013-12-02 20:20:00,
2013-12-02 12:25:00,22.7,18.0,25.37,NNW,337,4.7,9.0,81,0.00,,,0.00,Rainwise IP-100,2013-12-02 20:25:00,
2013-12-02 12:30:00,22.7,18.0,25.37,North,360,5.8,11.0,81,0.00,,,0.00,Rainwise IP-100,2013-12-02 20:30:00,
2013-12-02 12:35:00,22.9,18.0,25.37,WNW,292,0.0,8.0,82,0.00,,,0.00,Rainwise IP-100,2013-12-02 20:35:00,
2013-12-02 12:40:00,23.2,18.0,25.37,NW,315,6.8,12.0,81,0.00,,,0.00,Rainwise IP-100,2013-12-02 20:40:00,
2013-12-02 12:45:00,23.3,18.0,25.37,NNW,337,5.8,14.0,81,0.00,,,0.00,Rainwise IP-100,2013-12-02 20:45:00,
2013-12-02 12:50:00,23.1,18.0,25.38,NNW,337,4.0,9.0,82,0.00,,,0.00,Rainwise IP-100,2013-12-02 20:50:00,
2013-12-02 12:55:00,23.0,18.0,25.38,NNE,22,6.1,10.0,83,0.00,,,0.00,Rainwise IP-100,2013-12-02 20:55:00,
2013-12-02 13:00:00,22.9,18.0,25.38,NNE,22,1.4,7.0,86,0.00,,,0.00,Rainwise IP-100,2013-12-02 21:00:00,
2013-12-02 13:05:00,22.8,18.0,25.39,NNW,337,3.3,7.0,87,0.00,,,0.00,Rainwise IP-100,2013-12-02 21:05:00,
2013-12-02 13:10:00,22.8,18.0,25.38,NNE,22,4.0,8.0,87,0.00,,,0.00,Rainwise IP-100,2013-12-02 21:10:00,
2013-12-02 13:15:00,22.8,18.0,25.39,North,360,4.0,6.0,87,0.00,,,0.00,Rainwise IP-100,2013-12-02 21:15:00,
2013-12-02 13:20:00,22.7,18.0,25.39,North,360,7.9,12.0,87,0.00,,,0.00,Rainwise IP-100,2013-12-02 21:20:00,
2013-12-02 13:25:00,22.6,21.0,25.39,NNW,337,6.3,7.0,88,0.00,,,0.00,Rainwise IP-100,2013-12-02 21:25:00,
2013-12-02 13:30:00,22.6,21.0,25.39,West,270,0.0,8.0,88,0.00,,,0.00,Rainwise IP-100,2013-12-02 21:30:00,
2013-12-02 13:35:00,22.6,21.0,25.39,NNE,22,5.1,11.0,88,0.00,,,0.00,Rainwise IP-100,2013-12-02 21:35:00,
2013-12-02 13:40:00,22.6,21.0,25.39,NNE,22,4.4,11.0,88,0.00,,,0.00,Rainwise IP-100,2013-12-02 21:40:00,
2013-12-02 13:45:00,22.5,21.0,25.39,NE,45,3.7,11.0,88,0.00,,,0.00,Rainwise IP-100,2013-12-02 21:45:00,
2013-12-02 13:50:00,22.5,18.0,25.39,WNW,292,1.9,10.0,87,0.00,,,0.00,Rainwise IP-100,2013-12-02 21:50:00,
2013-12-02 13:55:00,22.6,18.0,25.39,North,360,6.3,9.0,87,0.00,,,0.00,Rainwise IP-100,2013-12-02 21:55:00,
2013-12-02 14:00:00,22.7,18.0,25.40,WNW,292,1.2,11.0,86,0.00,,,0.00,Rainwise IP-100,2013-12-02 22:00:00,
2013-12-02 14:05:00,22.7,18.0,25.40,SE,135,3.0,6.0,85,0.00,,,0.00,Rainwise IP-100,2013-12-02 22:05:00,
2013-12-02 14:10:00,22.6,18.0,25.40,NNW,337,0.0,7.0,85,0.00,,,0.00,Rainwise IP-100,2013-12-02 22:10:00,
2013-12-02 14:15:00,22.5,18.0,25.40,ENE,67,1.4,9.0,86,0.00,,,0.00,Rainwise IP-100,2013-12-02 22:15:00,
2013-12-02 14:20:00,22.5,18.0,25.40,NNW,337,4.2,6.0,87,0.00,,,0.00,Rainwise IP-100,2013-12-02 22:20:00,
2013-12-02 14:25:00,22.7,18.0,25.40,NNE,22,3.5,5.0,87,0.00,,,0.00,Rainwise IP-100,2013-12-02 22:25:00,
2013-12-02 14:30:00,23.0,18.0,25.40,North,360,2.3,8.0,86,0.00,,,0.00,Rainwise IP-100,2013-12-02 22:30:00,
2013-12-02 14:35:00,23.2,18.0,25.41,NNW,337,5.8,8.0,86,0.00,,,0.00,Rainwise IP-100,2013-12-02 22:35:00,
2013-12-02 14:40:00,23.0,18.0,25.41,NNE,22,2.3,9.0,86,0.00,,,0.00,Rainwise IP-100,2013-12-02 22:40:00,
2013-12-02 14:45:00,22.8,18.0,25.41,NNW,337,5.4,6.0,87,0.00,,,0.00,Rainwise IP-100,2013-12-02 22:45:00,
2013-12-02 14:50:00,22.7,21.0,25.42,North,360,5.1,5.1,88,0.00,,,0.00,Rainwise IP-100,2013-12-02 22:50:00,
2013-12-02 14:55:00,22.6,21.0,25.42,NNW,337,2.6,7.0,88,0.00,,,0.00,Rainwise IP-100,2013-12-02 22:55:00,
2013-12-02 15:00:00,22.6,21.0,25.42,NNE,22,5.6,7.0,89,0.00,,,0.00,Rainwise IP-100,2013-12-02 23:00:00,
2013-12-02 15:05:00,22.5,21.0,25.42,ENE,67,2.6,8.0,89,0.00,,,0.00,Rainwise IP-100,2013-12-02 23:05:00,
2013-12-02 15:10:00,22.4,21.0,25.42,NNE,22,3.7,7.0,89,0.00,,,0.00,Rainwise IP-100,2013-12-02 23:10:00,
2013-12-02 15:15:00,22.3,21.0,25.41,NNW,337,2.8,6.0,89,0.00,,,0.00,Rainwise IP-100,2013-12-02 23:15:00,
2013-12-02 15:20:00,22.2,21.0,25.41,NNW,337,4.4,6.0,89,0.00,,,0.00,Rainwise IP-100,2013-12-02 23:20:00,
2013-12-02 15:25:00,22.0,21.0,25.42,NNW,337,4.9,6.0,89,0.00,,,0.00,Rainwise IP-100,2013-12-02 23:25:00,
2013-12-02 15:30:00,22.0,21.0,25.42,North,360,0.0,6.0,90,0.00,,,0.00,Rainwise IP-100,2013-12-02 23:30:00,
2013-12-02 15:35:00,22.0,21.0,25.42,NNW,337,4.9,4.9,90,0.00,,,0.00,Rainwise IP-100,2013-12-02 23:35:00,
2013-12-02 15:40:00,21.9,21.0,25.42,NE,45,2.3,5.0,90,0.00,,,0.00,Rainwise IP-100,2013-12-02 23:40:00,
2013-12-02 15:45:00,21.8,21.0,25.42,ENE,67,0.0,7.0,91,0.00,,,0.00,Rainwise IP-100,2013-12-02 23:45:00,
2013-12-02 15:50:00,21.7,21.0,25.43,NNW,337,4.4,5.0,91,0.00,,,0.00,Rainwise IP-100,2013-12-02 23:50:00,
2013-12-02 15:55:00,21.6,21.0,25.43,NNE,22,3.0,7.0,91,0.00,,,0.00,Rainwise IP-100,2013-12-02 23:55:00,
2013-12-02 16:00:00,21.6,21.0,25.43,North,360,4.2,5.0,91,0.00,,,0.00,Rainwise IP-100,2013-12-03 00:00:00,
2013-12-02 16:05:00,21.6,21.0,25.43,ENE,67,0.0,5.0,91,0.00,,,0.00,Rainwise IP-100,2013-12-03 00:05:00,
2013-12-02 16:10:00,21.4,18.0,25.43,ESE,112,2.3,2.3,92,0.00,,,0.00,Rainwise IP-100,2013-12-03 00:10:00,
2013-12-02 16:15:00,21.4,18.0,25.43,ESE,112,2.3,2.3,92,0.00,,,0.00,Rainwise IP-100,2013-12-03 00:15:00,
2013-12-02 16:20:00,21.1,18.0,25.43,NNE,22,4.4,5.0,92,0.00,,,0.00,Rainwise IP-100,2013-12-03 00:20:00,
2013-12-02 16:25:00,21.1,18.0,25.43,NNE,22,1.9,4.0,92,0.00,,,0.00,Rainwise IP-100,2013-12-03 00:25:00,
2013-12-02 16:30:00,20.9,18.0,25.43,NNW,337,6.8,7.0,93,0.00,,,0.00,Rainwise IP-100,2013-12-03 00:30:00,
2013-12-02 16:35:00,20.9,18.0,25.43,NNE,22,6.5,7.0,94,0.00,,,0.00,Rainwise IP-100,2013-12-03 00:35:00,
2013-12-02 16:40:00,21.0,18.0,25.43,NNW,337,6.1,8.0,94,0.00,,,0.00,Rainwise IP-100,2013-12-03 00:40:00,
2013-12-02 16:45:00,21.0,18.0,25.43,NNW,337,6.5,6.5,94,0.00,,,0.00,Rainwise IP-100,2013-12-03 00:45:00,
2013-12-02 16:50:00,21.0,18.0,25.43,NNW,337,5.1,7.0,95,0.00,,,0.00,Rainwise IP-100,2013-12-03 00:50:00,
2013-12-02 16:55:00,21.0,18.0,25.43,NNW,337,3.5,5.0,95,0.00,,,0.00,Rainwise IP-100,2013-12-03 00:55:00,
2013-12-02 17:00:00,20.9,18.0,25.43,NNW,337,2.6,3.0,95,0.00,,,0.00,Rainwise IP-100,2013-12-03 01:00:00,
2013-12-02 17:05:00,20.9,18.0,25.43,ENE,67,0.0,5.0,95,0.00,,,0.00,Rainwise IP-100,2013-12-03 01:05:00,
2013-12-02 17:10:00,20.9,18.0,25.43,NNE,22,2.8,4.0,94,0.00,,,0.00,Rainwise IP-100,2013-12-03 01:10:00,
2013-12-02 17:15:00,20.9,18.0,25.43,North,360,0.0,2.0,94,0.00,,,0.00,Rainwise IP-100,2013-12-03 01:15:00,
2013-12-02 17:20:00,20.9,18.0,25.43,ESE,112,3.3,4.0,93,0.00,,,0.00,Rainwise IP-100,2013-12-03 01:20:00,
2013-12-02 17:25:00,21.2,18.0,25.43,ESE,112,0.0,3.0,90,0.00,,,0.00,Rainwise IP-100,2013-12-03 01:25:00,
2013-12-02 17:30:00,21.3,18.0,25.43,ENE,67,0.0,1.0,88,0.00,,,0.00,Rainwise IP-100,2013-12-03 01:30:00,
2013-12-02 17:35:00,21.2,18.0,25.43,NNW,337,0.0,1.0,88,0.00,,,0.00,Rainwise IP-100,2013-12-03 01:35:00,
2013-12-02 17:40:00,20.8,18.0,25.43,North,360,1.4,3.0,90,0.00,,,0.00,Rainwise IP-100,2013-12-03 01:40:00,
2013-12-02 17:45:00,20.4,18.0,25.43,East,90,0.0,1.0,91,0.00,,,0.00,Rainwise IP-100,2013-12-03 01:45:00,
2013-12-02 17:50:00,20.2,18.0,25.44,WSW,247,0.0,2.0,92,0.00,,,0.00,Rainwise IP-100,2013-12-03 01:50:00,
2013-12-02 17:55:00,20.1,18.0,25.44,SE,135,0.0,1.0,92,0.00,,,0.00,Rainwise IP-100,2013-12-03 01:55:00,
2013-12-02 18:00:00,20.0,18.0,25.43,SE,135,0.0,0.0,93,0.00,,,0.00,Rainwise IP-100,2013-12-03 02:00:00,
2013-12-02 18:05:00,19.8,18.0,25.44,SE,135,0.0,0.0,94,0.00,,,0.00,Rainwise IP-100,2013-12-03 02:05:00,
2013-12-02 18:10:00,19.5,18.0,25.43,SE,135,0.0,0.0,94,0.00,,,0.00,Rainwise IP-100,2013-12-03 02:10:00,
2013-12-02 18:15:00,19.4,18.0,25.43,SE,135,0.0,0.0,94,0.00,,,0.00,Rainwise IP-100,2013-12-03 02:15:00,
2013-12-02 18:20:00,19.3,18.0,25.43,SE,135,0.0,1.0,95,0.00,,,0.00,Rainwise IP-100,2013-12-03 02:20:00,
2013-12-02 18:25:00,19.1,21.0,25.43,SE,135,0.0,0.0,96,0.00,,,0.00,Rainwise IP-100,2013-12-03 02:25:00,
2013-12-02 18:30:00,18.8,21.0,25.44,SE,135,0.0,0.0,96,0.00,,,0.00,Rainwise IP-100,2013-12-03 02:30:00,
2013-12-02 18:35:00,18.6,21.0,25.43,SE,135,0.0,0.0,96,0.00,,,0.00,Rainwise IP-100,2013-12-03 02:35:00,
2013-12-02 18:40:00,18.5,21.0,25.43,SE,135,0.0,0.0,97,0.00,,,0.00,Rainwise IP-100,2013-12-03 02:40:00,
2013-12-02 18:45:00,18.6,21.0,25.44,SSE,157,0.0,0.0,97,0.00,,,0.00,Rainwise IP-100,2013-12-03 02:45:00,
2013-12-02 18:50:00,18.9,21.0,25.44,SSE,157,0.0,0.0,97,0.00,,,0.00,Rainwise IP-100,2013-12-03 02:50:00,
2013-12-02 18:55:00,19.1,21.0,25.44,SSE,157,0.0,0.0,97,0.00,,,0.00,Rainwise IP-100,2013-12-03 02:55:00,
2013-12-02 19:00:00,19.2,21.0,25.45,South,180,0.0,1.0,98,0.00,,,0.00,Rainwise IP-100,2013-12-03 03:00:00,
2013-12-02 19:05:00,19.2,21.0,25.45,South,180,0.0,0.0,98,0.00,,,0.00,Rainwise IP-100,2013-12-03 03:05:00,
2013-12-02 19:10:00,19.3,21.0,25.45,South,180,0.0,0.0,98,0.00,,,0.00,Rainwise IP-100,2013-12-03 03:10:00,
2013-12-02 19:15:00,19.4,21.0,25.45,South,180,0.0,0.0,98,0.00,,,0.00,Rainwise IP-100,2013-12-03 03:15:00,
2013-12-02 19:20:00,19.6,21.0,25.45,South,180,0.0,0.0,98,0.00,,,0.00,Rainwise IP-100,2013-12-03 03:20:00,
2013-12-02 19:25:00,19.9,21.0,25.45,South,180,1.9,2.0,98,0.00,,,0.00,Rainwise IP-100,2013-12-03 03:25:00,
2013-12-02 19:30:00,20.0,21.0,25.45,South,180,1.2,2.0,98,0.00,,,0.00,Rainwise IP-100,2013-12-03 03:30:00,
2013-12-02 19:35:00,20.1,21.0,25.45,South,180,0.0,1.0,98,0.00,,,0.00,Rainwise IP-100,2013-12-03 03:35:00,
2013-12-02 19:40:00,20.2,21.0,25.46,South,180,0.0,0.0,97,0.00,,,0.00,Rainwise IP-100,2013-12-03 03:40:00,
2013-12-02 19:45:00,20.3,21.0,25.45,NNE,22,0.0,1.0,97,0.00,,,0.00,Rainwise IP-100,2013-12-03 03:45:00,
2013-12-02 19:50:00,20.3,21.0,25.46,ESE,112,2.6,0.0,97,0.00,,,0.00,Rainwise IP-100,2013-12-03 03:50:00,
2013-12-02 19:55:00,20.6,21.0,25.46,East,90,0.0,2.0,97,0.00,,,0.00,Rainwise IP-100,2013-12-03 03:55:00,
2013-12-02 20:00:00,20.7,21.0,25.45,ENE,67,0.0,1.0,97,0.00,,,0.00,Rainwise IP-100,2013-12-03 04:00:00,
2013-12-02 20:05:00,20.7,21.0,25.46,NNE,22,0.0,3.0,97,0.00,,,0.00,Rainwise IP-100,2013-12-03 04:05:00,
2013-12-02 20:10:00,20.7,21.0,25.45,NNW,337,2.1,2.1,97,0.00,,,0.00,Rainwise IP-100,2013-12-03 04:10:00,
2013-12-02 20:15:00,20.8,21.0,25.45,East,90,0.0,3.0,97,0.00,,,0.00,Rainwise IP-100,2013-12-03 04:15:00,
2013-12-02 20:20:00,20.9,21.0,25.46,North,360,0.0,2.0,97,0.00,,,0.00,Rainwise IP-100,2013-12-03 04:20:00,
2013-12-02 20:25:00,20.9,21.0,25.46,NNW,337,2.1,3.0,97,0.00,,,0.00,Rainwise IP-100,2013-12-03 04:25:00,
2013-12-02 20:30:00,21.0,21.0,25.46,NNW,337,0.0,2.0,97,0.00,,,0.00,Rainwise IP-100,2013-12-03 04:30:00,
2013-12-02 20:35:00,21.1,21.0,25.46,NNE,22,0.0,2.0,97,0.00,,,0.00,Rainwise IP-100,2013-12-03 04:35:00,
2013-12-02 20:40:00,21.1,21.0,25.46,NNW,337,0.0,2.0,97,0.00,,,0.00,Rainwise IP-100,2013-12-03 04:40:00,
2013-12-02 20:45:00,21.1,21.0,25.46,NNW,337,1.4,4.0,96,0.00,,,0.00,Rainwise IP-100,2013-12-03 04:45:00,
2013-12-02 20:50:00,21.1,21.0,25.46,North,360,0.0,3.0,96,0.00,,,0.00,Rainwise IP-100,2013-12-03 04:50:00,
2013-12-02 20:55:00,21.1,21.0,25.46,North,360,0.0,0.0,96,0.00,,,0.00,Rainwise IP-100,2013-12-03 04:55:00,
2013-12-02 21:00:00,21.0,21.0,25.46,North,360,0.0,0.0,96,0.00,,,0.00,Rainwise IP-100,2013-12-03 05:00:00,
2013-12-02 21:01:00,21.0,21.0,25.46,North,360,0.0,0.0,96,0.00,,,0.00,Rainwise IP-100,2013-12-03 05:01:00,
2013-12-02 21:02:00,21.0,21.0,25.46,North,360,0.0,0.0,96,0.00,,,0.00,Rainwise IP-100,2013-12-03 05:02:00,
2013-12-02 21:07:00,20.9,21.0,25.46,North,360,0.0,0.0,96,0.00,,,0.00,Rainwise IP-100,2013-12-03 05:07:00,
2013-12-02 21:12:00,20.9,21.0,25.47,North,360,0.0,0.0,96,0.00,,,0.00,Rainwise IP-100,2013-12-03 05:12:00,
2013-12-02 21:17:00,20.9,21.0,25.47,North,360,0.0,0.0,96,0.00,,,0.00,Rainwise IP-100,2013-12-03 05:17:00,
2013-12-02 21:22:00,20.9,21.0,25.47,North,360,0.0,0.0,96,0.00,,,0.00,Rainwise IP-100,2013-12-03 05:22:00,
2013-12-02 21:27:00,20.9,21.0,25.47,North,360,0.0,0.0,96,0.00,,,0.00,Rainwise IP-100,2013-12-03 05:27:00,
2013-12-02 21:32:00,20.9,21.0,25.47,North,360,0.0,0.0,96,0.00,,,0.00,Rainwise IP-100,2013-12-03 05:32:00,
2013-12-02 21:37:00,21.0,21.0,25.47,North,360,0.0,0.0,96,0.00,,,0.00,Rainwise IP-100,2013-12-03 05:37:00,
2013-12-02 21:42:00,21.0,21.0,25.47,North,360,1.2,1.2,97,0.00,,,0.00,Rainwise IP-100,2013-12-03 05:42:00,
2013-12-02 21:47:00,21.0,21.0,25.47,North,360,0.0,1.0,96,0.00,,,0.00,Rainwise IP-100,2013-12-03 05:47:00,
2013-12-02 21:52:00,21.0,21.0,25.48,NNW,337,3.0,3.0,96,0.00,,,0.00,Rainwise IP-100,2013-12-03 05:52:00,
2013-12-02 21:57:00,21.1,21.0,25.48,NNW,337,2.6,4.0,96,0.00,,,0.00,Rainwise IP-100,2013-12-03 05:57:00,
2013-12-02 22:02:00,21.1,21.0,25.47,NNW,337,1.4,4.0,97,0.00,,,0.00,Rainwise IP-100,2013-12-03 06:02:00,
2013-12-02 22:07:00,21.1,21.0,25.48,North,360,3.0,4.0,98,0.00,,,0.00,Rainwise IP-100,2013-12-03 06:07:00,
2013-12-02 22:12:00,21.1,21.0,25.48,NNW,337,2.8,4.0,98,0.00,,,0.00,Rainwise IP-100,2013-12-03 06:12:00,
2013-12-02 22:17:00,21.1,21.0,25.48,North,360,3.3,4.0,99,0.00,,,0.00,Rainwise IP-100,2013-12-03 06:17:00,
2013-12-02 22:22:00,21.1,21.0,25.48,North,360,1.4,4.0,99,0.00,,,0.00,Rainwise IP-100,2013-12-03 06:22:00,
2013-12-02 22:27:00,21.1,21.0,25.48,NNW,337,1.4,5.0,99,0.00,,,0.00,Rainwise IP-100,2013-12-03 06:27:00,
2013-12-02 22:32:00,21.1,21.0,25.48,NNE,22,0.0,6.0,99,0.00,,,0.00,Rainwise IP-100,2013-12-03 06:32:00,
2013-12-02 22:37:00,21.1,21.0,25.48,NNW,337,2.6,4.0,99,0.00,,,0.00,Rainwise IP-100,2013-12-03 06:37:00,
2013-12-02 22:42:00,21.1,21.0,25.48,NNW,337,3.0,4.0,99,0.00,,,0.00,Rainwise IP-100,2013-12-03 06:42:00,
2013-12-02 22:47:00,21.1,21.0,25.48,NNW,337,2.1,4.0,99,0.00,,,0.00,Rainwise IP-100,2013-12-03 06:47:00,
2013-12-02 22:52:00,21.1,21.0,25.48,NNE,22,1.4,4.0,99,0.00,,,0.00,Rainwise IP-100,2013-12-03 06:52:00,
2013-12-02 22:57:00,21.1,21.0,25.48,North,360,4.0,4.0,99,0.00,,,0.00,Rainwise IP-100,2013-12-03 06:57:00,
2013-12-02 23:02:00,21.1,21.0,25.48,NNW,337,1.2,5.0,99,0.00,,,0.00,Rainwise IP-100,2013-12-03 07:02:00,
2013-12-02 23:07:00,21.1,21.0,25.48,NNE,22,0.0,3.0,98,0.00,,,0.00,Rainwise IP-100,2013-12-03 07:07:00,
2013-12-02 23:12:00,21.1,21.0,25.48,NNW,337,2.1,4.0,98,0.00,,,0.00,Rainwise IP-100,2013-12-03 07:12:00,
2013-12-02 23:17:00,21.1,21.0,25.48,North,360,2.8,3.0,98,0.00,,,0.00,Rainwise IP-100,2013-12-03 07:17:00,
2013-12-02 23:22:00,21.1,21.0,25.48,NNW,337,1.9,4.0,98,0.00,,,0.00,Rainwise IP-100,2013-12-03 07:22:00,
2013-12-02 23:27:00,21.2,21.0,25.49,NNW,337,1.2,3.0,98,0.00,,,0.00,Rainwise IP-100,2013-12-03 07:27:00,
2013-12-02 23:32:00,21.3,21.0,25.49,NNW,337,3.0,4.0,97,0.00,,,0.00,Rainwise IP-100,2013-12-03 07:32:00,
2013-12-02 23:37:00,21.3,21.0,25.49,ENE,67,1.2,6.0,97,0.00,,,0.00,Rainwise IP-100,2013-12-03 07:37:00,
2013-12-02 23:42:00,21.4,21.0,25.49,NNE,22,0.0,3.0,96,0.00,,,0.00,Rainwise IP-100,2013-12-03 07:42:00,
2013-12-02 23:47:00,21.5,23.0,25.49,NNW,337,3.0,4.0,96,0.00,,,0.00,Rainwise IP-100,2013-12-03 07:47:00,
2013-12-02 23:52:00,21.5,23.0,25.49,ESE,112,2.3,3.0,96,0.00,,,0.00,Rainwise IP-100,2013-12-03 07:52:00,
2013-12-02 23:57:00,21.6,23.0,25.49,NE,45,0.0,5.0,97,0.00,,,0.00,Rainwise IP-100,2013-12-03 07:57:00,